Time;durP1;ratioP1;P1;durP2;ratioP2;P2;SDS_P1;SDS_P2;PMS_P1;PMS_P2;Temp;Humidity;BMP_temperature;BMP_pressure;BME280_temperature;BME280_humidity;BME280_pressure;Samples;Min_cycle;Max_cycle;Signal;HPM_P1;HPM_P2
2022/07/19 00:04:11;;;;;;;6.10;4.10;;;;;;;16.28;61.87;100045.44;431439;1270;143307;-61
2022/07/19 00:14:17;;;;;;;5.80;3.60;;;;;;;16.17;62.00;100044.77;431535;1270;143782;-60
2022/07/19 00:24:23;;;;;;;4.90;3.30;;;;;;;16.09;62.39;100047.10;432106;1270;146461;-60
2022/07/19 00:34:28;;;;;;;4.70;3.90;;;;;;;16.06;62.62;100047.88;430813;1271;143791;-59
2022/07/19 00:44:35;;;;;;;6.10;4.40;;;;;;;16.01;62.81;100045.77;431478;1270;143580;-60
2022/07/19 00:54:43;;;;;;;6.30;4.90;;;;;;;15.90;62.89;100047.52;432739;1270;142624;-60
2022/07/19 01:04:48;;;;;;;10.00;4.90;;;;;;;15.81;63.33;100050.86;431213;1271;141936;-61
2022/07/19 01:15:02;;;;;;;6.30;3.90;;;;;;;15.83;63.51;100041.34;431960;1270;143187;-60
2022/07/19 01:25:09;;;;;;;5.40;4.10;;;;;;;15.81;63.56;100040.06;431343;1271;141895;-60
2022/07/19 01:35:16;;;;;;;6.70;4.50;;;;;;;15.79;63.94;100034.09;432060;1270;141882;-60
2022/07/19 01:45:22;;;;;;;6.10;3.70;;;;;;;15.77;64.12;100030.40;431879;1270;141950;-58
2022/07/19 01:55:27;;;;;;;3.70;3.40;;;;;;;15.77;64.32;100031.07;431375;1270;143165;-61
2022/07/19 02:05:33;;;;;;;5.40;3.70;;;;;;;15.77;64.62;100030.54;432120;1271;142318;-58
2022/07/19 02:15:39;;;;;;;6.10;3.30;;;;;;;15.76;64.62;100031.67;431880;1270;146096;-59
2022/07/19 02:25:45;;;;;;;8.30;5.10;;;;;;;15.64;64.74;100032.27;431079;1271;141519;-60
2022/07/19 02:35:51;;;;;;;4.60;4.10;;;;;;;15.49;65.01;100031.11;431985;1270;142282;-59
2022/07/19 02:45:57;;;;;;;5.60;4.10;;;;;;;15.39;65.15;100030.23;431097;1271;142309;-57
2022/07/19 02:56:03;;;;;;;9.60;4.90;;;;;;;15.34;65.76;100028.02;430774;1271;141329;-56
2022/07/19 03:06:10;;;;;;;7.30;4.20;;;;;;;15.28;65.96;100030.91;431666;1271;141539;-59
2022/07/19 03:16:15;;;;;;;8.40;4.90;;;;;;;15.28;66.33;100029.38;431112;1271;141603;-60
2022/07/19 03:26:21;;;;;;;10.50;4.50;;;;;;;15.33;66.21;100025.30;431128;1271;142666;-60
2022/07/19 03:36:27;;;;;;;8.20;4.40;;;;;;;15.37;66.24;100029.75;431951;1273;141853;-59
2022/07/19 03:46:33;;;;;;;9.60;5.00;;;;;;;15.66;65.85;100026.46;430903;1273;146106;-60
2022/07/19 03:56:39;;;;;;;8.60;4.10;;;;;;;16.09;65.29;100024.14;432247;1271;144816;-58
2022/07/19 04:06:45;;;;;;;6.20;4.50;;;;;;;16.49;64.85;100019.77;430373;1273;142541;-58
2022/07/19 04:16:51;;;;;;;6.60;4.80;;;;;;;16.96;63.19;100020.11;430879;1271;143181;-57
2022/07/19 04:26:57;;;;;;;5.70;3.60;;;;;;;17.97;61.05;100023.17;431455;1271;142960;-58
2022/07/19 04:37:02;;;;;;;14.60;6.00;;;;;;;18.78;59.89;100033.54;431654;1273;146327;-59
2022/07/19 04:47:08;;;;;;;5.50;3.80;;;;;;;18.80;58.88;100031.80;430704;1271;143752;-58
2022/07/19 04:57:14;;;;;;;6.40;3.50;;;;;;;18.76;58.56;100040.15;430933;1271;141694;-58
2022/07/19 05:07:20;;;;;;;8.10;5.20;;;;;;;18.87;58.47;100036.33;431796;1271;142514;-57
2022/07/19 05:17:26;;;;;;;7.70;4.00;;;;;;;18.87;57.93;100032.89;431584;1270;141358;-59
2022/07/19 05:27:32;;;;;;;8.30;5.00;;;;;;;19.09;57.26;100023.48;432486;1270;141780;-59
2022/07/19 05:37:38;;;;;;;9.10;4.10;;;;;;;19.18;56.33;100022.86;430536;1270;145076;-59
2022/07/19 05:47:44;;;;;;;10.30;4.30;;;;;;;19.22;56.79;100018.09;439101;1270;141068;-61
2022/07/19 05:57:50;;;;;;;10.40;4.90;;;;;;;19.25;56.20;100022.39;432269;1270;141168;-61
2022/07/19 06:07:56;;;;;;;8.60;3.60;;;;;;;19.44;55.50;100027.35;430720;1271;141544;-58
2022/07/19 06:18:02;;;;;;;16.60;4.60;;;;;;;19.79;55.60;100024.02;432056;1270;141865;-60
2022/07/19 06:28:12;;;;;;;10.60;4.30;;;;;;;20.48;54.75;100025.27;431939;1270;142008;-59
2022/07/19 06:38:18;;;;;;;9.80;3.80;;;;;;;21.43;53.08;100022.48;431816;1270;141452;-58
2022/07/19 06:48:24;;;;;;;31.20;6.00;;;;;;;23.25;50.23;100028.80;432422;1271;140944;-57
2022/07/19 06:58:30;;;;;;;10.50;5.00;;;;;;;24.28;48.06;100028.01;432011;1270;142997;-61
2022/07/19 07:08:43;;;;;;;11.00;3.70;;;;;;;24.72;46.65;100022.67;431572;1270;142755;-59
2022/07/19 07:18:49;;;;;;;6.60;3.10;;;;;;;25.72;45.12;100022.83;432390;1271;141097;-60
2022/07/19 07:28:54;;;;;;;7.10;3.50;;;;;;;26.14;43.47;100029.35;432141;1270;146716;-59
2022/07/19 07:39:00;;;;;;;8.20;3.10;;;;;;;27.82;41.65;100024.58;432096;1270;140570;-59
2022/07/19 07:49:06;;;;;;;5.60;2.80;;;;;;;29.47;38.62;100024.20;431984;1271;140913;-56
2022/07/19 07:59:13;;;;;;;8.00;3.30;;;;;;;29.56;37.26;100024.60;431024;1271;141313;-61
2022/07/19 08:09:18;;;;;;;8.60;3.60;;;;;;;31.25;35.55;100025.94;431790;1272;144554;-60
2022/07/19 08:19:24;;;;;;;5.90;2.60;;;;;;;32.16;34.10;100027.21;431624;1270;142793;-58
2022/07/19 08:29:30;;;;;;;3.90;2.70;;;;;;;34.16;32.31;100023.85;432229;1270;140882;-58
2022/07/19 08:39:34;;;;;;;;;;;;;;;36.11;29.39;100014.73;432490;1270;142253;-60
2022/07/19 08:49:42;;;;;;;13.80;3.90;;;;;;;35.22;27.82;99997.70;432303;1271;128128;-60
2022/07/19 08:59:48;;;;;;;8.40;2.60;;;;;;;34.94;27.26;99997.13;432105;1271;141279;-62
2022/07/19 09:10:14;;;;;;;5.10;2.50;;;;;;;33.71;26.70;99990.99;432077;1271;141406;-57
2022/07/19 09:20:29;;;;;;;6.00;2.80;;;;;;;32.91;26.85;99976.37;431866;1271;193329;-58
2022/07/19 09:30:41;;;;;;;4.50;2.70;;;;;;;31.78;26.56;99968.84;432347;1270;141965;-58
2022/07/19 09:40:53;;;;;;;6.50;2.80;;;;;;;31.51;26.87;99971.08;431292;1271;141220;-60
2022/07/19 09:50:59;;;;;;;4.50;3.10;;;;;;;30.84;26.95;99965.00;432004;1270;143362;-59
2022/07/19 10:01:05;;;;;;;4.50;2.90;;;;;;;30.31;27.25;99954.32;432024;1270;141205;-56
2022/07/19 10:11:12;;;;;;;3.80;2.30;;;;;;;29.96;27.67;99952.80;431470;1270;140598;-58
2022/07/19 10:21:18;;;;;;;6.00;2.70;;;;;;;29.69;28.05;99951.91;433174;1270;141723;-59
2022/07/19 10:31:32;;;;;;;3.70;2.90;;;;;;;29.88;28.27;99946.05;431640;1270;141338;-59
2022/07/19 10:41:38;;;;;;;3.80;3.20;;;;;;;29.84;28.12;99939.80;431203;1271;141334;-57
2022/07/19 10:51:46;;;;;;;4.30;2.40;;;;;;;29.68;27.95;99935.64;432335;1271;141127;-62
2022/07/19 11:02:00;;;;;;;5.80;2.40;;;;;;;29.57;28.02;99926.96;431825;1270;144004;-61
2022/07/19 11:12:29;;;;;;;3.00;2.60;;;;;;;29.28;27.85;99920.44;431782;1271;141007;-59
2022/07/19 11:22:40;;;;;;;3.00;2.20;;;;;;;29.06;28.13;99918.23;431304;1270;363788;-59
2022/07/19 11:32:54;;;;;;;4.20;2.60;;;;;;;28.92;28.19;99914.75;432300;1270;141893;-58
2022/07/19 11:43:00;;;;;;;6.10;2.70;;;;;;;28.95;28.22;99911.98;432803;1270;141266;-60
2022/07/19 11:53:22;;;;;;;3.20;1.90;;;;;;;29.02;28.37;99904.52;432151;1270;140563;-64
2022/07/19 12:03:28;;;;;;;4.90;2.30;;;;;;;29.08;28.47;99891.70;431792;1268;152447;-58
2022/07/19 12:13:36;;;;;;;7.80;2.90;;;;;;;29.18;28.39;99886.08;430697;1271;141362;-58
2022/07/19 12:23:43;;;;;;;4.10;2.60;;;;;;;28.98;28.35;99877.67;431928;1270;146685;-62
2022/07/19 12:33:58;;;;;;;6.10;2.20;;;;;;;28.91;28.78;99871.25;432628;1270;148559;-58
2022/07/19 12:44:04;;;;;;;2.80;2.00;;;;;;;29.15;28.72;99864.08;431305;1270;145332;-61
2022/07/19 12:54:10;;;;;;;3.30;3.00;;;;;;;29.05;28.61;99855.23;431567;1270;141059;-59
2022/07/19 13:04:15;;;;;;;4.50;2.20;;;;;;;29.17;28.80;99842.50;431970;1270;141489;-56
2022/07/19 13:14:23;;;;;;;4.90;2.10;;;;;;;29.18;28.79;99841.25;432462;1270;145060;-56
2022/07/19 13:24:29;;;;;;;2.70;2.20;;;;;;;29.04;29.12;99838.16;432190;1270;148144;-60
2022/07/19 13:34:55;;;;;;;3.90;2.00;;;;;;;29.18;29.06;99828.11;430762;1270;141594;-58
2022/07/19 13:45:01;;;;;;;4.40;2.80;;;;;;;29.31;28.98;99826.25;432423;1270;140748;-56
2022/07/19 13:55:09;;;;;;;4.90;2.50;;;;;;;29.42;28.98;99820.58;432676;1270;141797;-59
2022/07/19 14:05:15;;;;;;;3.60;2.50;;;;;;;29.37;28.63;99816.45;431190;1271;141897;-56
2022/07/19 14:15:21;;;;;;;3.00;2.60;;;;;;;29.34;28.75;99812.50;435352;1271;141155;-66
2022/07/19 14:25:27;;;;;;;3.90;2.50;;;;;;;29.42;28.92;99806.02;433915;1269;142618;-58
2022/07/19 14:35:33;;;;;;;6.10;2.30;;;;;;;29.51;28.79;99803.91;434089;1270;141212;-60
2022/07/19 14:45:39;;;;;;;2.70;2.00;;;;;;;29.42;28.76;99791.95;431779;1270;141116;-60
2022/07/19 14:55:45;;;;;;;3.30;2.40;;;;;;;29.32;28.39;99790.85;431081;1271;142834;-59
2022/07/19 15:05:50;;;;;;;4.00;2.70;;;;;;;29.20;28.30;99786.35;431626;1270;141428;-60
2022/07/19 15:15:56;;;;;;;3.30;1.80;;;;;;;29.22;28.59;99781.96;431262;1270;141066;-59
2022/07/19 15:26:02;;;;;;;;;;;;;;;29.23;28.63;99778.86;432119;1270;141177;-59
2022/07/19 15:36:08;;;;;;;3.40;2.70;;;;;;;29.20;28.70;99780.73;433182;1269;128428;-59
2022/07/19 15:46:14;;;;;;;2.20;2.10;;;;;;;29.23;28.77;99776.34;433258;1270;140979;-60
2022/07/19 15:56:20;;;;;;;2.60;2.30;;;;;;;29.27;28.85;99775.81;431863;1270;142564;-60
2022/07/19 16:06:26;;;;;;;2.60;1.90;;;;;;;29.29;28.79;99772.69;431352;1270;140995;-59
2022/07/19 16:16:32;;;;;;;5.70;2.60;;;;;;;29.22;28.56;99768.73;431386;1270;141065;-60
2022/07/19 16:26:38;;;;;;;3.20;2.00;;;;;;;29.11;28.40;99765.23;432437;1270;139915;-61
2022/07/19 16:37:06;;;;;;;3.70;2.40;;;;;;;28.99;28.36;99764.37;432154;1270;141417;-61
2022/07/19 16:47:13;;;;;;;2.80;2.60;;;;;;;28.91;28.52;99761.34;431562;1270;141363;-59
2022/07/19 16:57:19;;;;;;;5.70;2.70;;;;;;;28.80;28.63;99767.72;432327;1270;141099;-59
2022/07/19 17:07:25;;;;;;;3.30;2.50;;;;;;;28.70;28.84;99773.48;431082;1270;141844;-63
2022/07/19 17:17:31;;;;;;;3.90;2.60;;;;;;;28.55;29.18;99770.05;432420;1270;141941;-58
2022/07/19 17:27:37;;;;;;;4.70;2.30;;;;;;;28.42;29.48;99774.11;431701;1270;140940;-59
2022/07/19 17:37:43;;;;;;;6.50;3.30;;;;;;;28.22;29.68;99777.48;431317;1270;186837;-61
2022/07/19 17:47:48;;;;;;;8.90;3.20;;;;;;;27.94;30.12;99784.75;432929;1270;142127;-60
2022/07/19 17:57:54;;;;;;;6.20;2.60;;;;;;;27.62;30.50;99787.61;433008;1270;141389;-60
2022/07/19 18:08:00;;;;;;;10.80;2.80;;;;;;;27.25;31.23;99791.16;431671;1270;141605;-60
2022/07/19 18:18:06;;;;;;;8.20;3.80;;;;;;;26.84;32.21;99794.11;432966;1270;140880;-61
2022/07/19 18:28:12;;;;;;;8.20;3.20;;;;;;;26.36;33.29;99789.91;432138;1270;141334;-60
2022/07/19 18:38:18;;;;;;;15.30;3.90;;;;;;;25.80;34.89;99793.53;431074;1270;140801;-59
2022/07/19 18:48:30;;;;;;;13.60;5.70;;;;;;;25.21;36.38;99796.23;431749;1270;141654;-61
2022/07/19 18:58:37;;;;;;;18.70;4.50;;;;;;;24.61;38.63;99805.10;431173;1270;143526;-62
2022/07/19 19:08:43;;;;;;;19.80;6.30;;;;;;;24.03;41.00;99812.80;431802;1270;140906;-61
2022/07/19 19:18:49;;;;;;;34.80;6.20;;;;;;;23.48;42.47;99817.29;431458;1270;141016;-59
2022/07/19 19:29:04;;;;;;;22.00;6.60;;;;;;;23.03;44.10;99828.29;431302;1270;141941;-59
2022/07/19 19:39:11;;;;;;;12.50;5.80;;;;;;;22.60;45.60;99838.16;432156;1270;142444;-58
2022/07/19 19:49:19;;;;;;;12.30;5.50;;;;;;;22.15;47.11;99846.27;431583;1270;141340;-61
2022/07/19 19:59:24;;;;;;;15.30;5.70;;;;;;;21.76;48.39;99847.20;432507;1270;144937;-60
2022/07/19 20:09:30;;;;;;;18.70;8.80;;;;;;;21.42;49.48;99846.52;431724;1270;141306;-60
2022/07/19 20:19:36;;;;;;;17.40;6.90;;;;;;;21.07;50.64;99853.52;431286;1270;142006;-59
2022/07/19 20:29:42;;;;;;;12.30;6.30;;;;;;;20.75;51.48;99858.02;431450;1270;145263;-59
2022/07/19 20:39:48;;;;;;;13.70;4.90;;;;;;;20.44;52.38;99862.91;432122;1270;140618;-59
2022/07/19 20:49:53;;;;;;;13.70;4.90;;;;;;;20.15;53.12;99868.70;430890;1270;141330;-57
2022/07/19 20:59:59;;;;;;;9.00;4.90;;;;;;;19.89;53.94;99868.68;432027;1270;141154;-64
2022/07/19 21:10:07;;;;;;;15.90;7.10;;;;;;;19.63;54.52;99874.45;431658;1270;141378;-58
2022/07/19 21:20:13;;;;;;;17.40;5.60;;;;;;;19.41;55.50;99874.47;429748;1271;143427;-59
2022/07/19 21:30:19;;;;;;;10.50;6.30;;;;;;;19.19;56.09;99883.10;440079;1273;142058;-60
2022/07/19 21:40:26;;;;;;;16.80;6.20;;;;;;;18.98;56.79;99885.95;430528;1273;142766;-60
2022/07/19 21:50:31;;;;;;;13.80;6.50;;;;;;;18.80;57.36;99882.84;431384;1271;142941;-59
2022/07/19 22:00:37;;;;;;;12.60;7.80;;;;;;;18.63;58.06;99882.98;431758;1271;142424;-58
2022/07/19 22:10:43;;;;;;;10.50;6.10;;;;;;;18.44;58.65;99886.27;430817;1271;142066;-58
2022/07/19 22:20:50;;;;;;;14.30;6.80;;;;;;;18.23;59.08;99889.83;431554;1271;142276;-60
2022/07/19 22:30:56;;;;;;;12.80;6.30;;;;;;;18.08;59.82;99893.46;432070;1271;141539;-59
2022/07/19 22:41:02;;;;;;;14.30;6.40;;;;;;;17.95;60.52;99899.55;431027;1271;142949;-59
2022/07/19 22:51:09;;;;;;;9.70;5.60;;;;;;;17.78;60.84;99901.77;431351;1273;141347;-61
2022/07/19 23:01:15;;;;;;;8.90;6.60;;;;;;;17.64;61.26;99901.98;432666;1271;141843;-60
2022/07/19 23:11:21;;;;;;;10.90;7.30;;;;;;;17.50;61.67;99906.16;431546;1271;141764;-58
2022/07/19 23:21:27;;;;;;;12.90;6.80;;;;;;;17.33;62.31;99907.85;432081;1271;143073;-58
2022/07/19 23:31:33;;;;;;;9.20;6.10;;;;;;;17.19;62.70;99916.46;430988;1271;266551;-59
2022/07/19 23:41:39;;;;;;;8.70;6.70;;;;;;;17.03;63.09;99920.00;432294;1271;141292;-60
2022/07/19 23:51:44;;;;;;;13.40;6.40;;;;;;;16.91;63.62;99924.30;431658;1271;142029;-59
